Time;durP1;ratioP1;P1;durP2;ratioP2;P2;SDS_P1;SDS_P2;PMS_P1;PMS_P2;Temp;Humidity;BMP_temperature;BMP_pressure;BME280_temperature;BME280_humidity;BME280_pressure;Samples;Min_cycle;Max_cycle;Signal;HPM_P1;HPM_P2
2021/03/09 00:00:26;;;;;;;74.85;37.65;;;;;;;;;;5115363;28;20275;-64
2021/03/09 00:02:53;;;;;;;84.43;39.72;;;;;;;;;;5116260;28;20260;-66
2021/03/09 00:05:20;;;;;;;81.30;37.75;;;;;;;;;;5115177;28;20200;-64
2021/03/09 00:07:47;;;;;;;72.97;37.75;;;;;;;;;;5115388;28;20271;-64
2021/03/09 00:10:14;;;;;;;78.95;37.03;;;;;;;;;;5115426;28;20284;-65
2021/03/09 00:12:41;;;;;;;87.70;39.25;;;;;;;;;;5115835;28;20340;-64
2021/03/09 00:15:08;;;;;;;78.82;35.70;;;;;;;;;;5116025;28;20202;-64
2021/03/09 00:17:35;;;;;;;79.50;37.40;;;;;;;;;;5115957;28;20281;-64
2021/03/09 00:20:03;;;;;;;77.03;37.78;;;;;;;;;;5115157;28;20302;-64
2021/03/09 00:22:30;;;;;;;76.32;38.22;;;;;;;;;;5114998;28;20304;-64
2021/03/09 00:24:57;;;;;;;71.00;35.15;;;;;;;;;;5115150;28;20283;-64
2021/03/09 00:27:24;;;;;;;73.78;38.75;;;;;;;;;;5115015;28;20287;-64
2021/03/09 00:29:51;;;;;;;81.72;35.50;;;;;;;;;;5114652;28;20383;-63
2021/03/09 00:32:18;;;;;;;75.60;36.88;;;;;;;;;;5114908;28;20263;-64
2021/03/09 00:34:45;;;;;;;80.03;35.92;;;;;;;;;;5114720;28;20739;-64
2021/03/09 00:37:12;;;;;;;68.63;33.90;;;;;;;;;;5114809;28;20276;-64
2021/03/09 00:39:38;;;;;;;71.78;36.45;;;;;;;;;;5114837;28;20247;-64
2021/03/09 00:42:05;;;;;;;85.97;38.05;;;;;;;;;;5114308;28;20344;-64
2021/03/09 00:44:32;;;;;;;87.53;38.28;;;;;;;;;;5114679;28;20739;-64
2021/03/09 00:47:00;;;;;;;83.25;37.28;;;;;;;;;;5114232;28;20280;-64
2021/03/09 00:49:26;;;;;;;86.70;40.40;;;;;;;;;;5115041;28;20224;-64
2021/03/09 00:51:53;;;;;;;74.82;37.67;;;;;;;;;;5114651;28;20342;-64
2021/03/09 00:54:20;;;;;;;77.75;37.60;;;;;;;;;;5114589;28;20232;-64
2021/03/09 00:56:47;;;;;;;85.60;37.75;;;;;;;;;;5114235;28;20229;-64
2021/03/09 00:59:13;;;;;;;87.63;38.50;;;;;;;;;;5114165;28;20213;-64
2021/03/09 01:01:40;;;;;;;81.43;39.25;;;;;;;;;;5114361;28;20223;-63
2021/03/09 01:04:08;;;;;;;86.10;36.08;;;;;;;;;;5114723;28;20197;-64
2021/03/09 01:06:34;;;;;;;81.40;38.67;;;;;;;;;;5114256;28;20240;-64
2021/03/09 01:09:01;;;;;;;73.00;37.67;;;;;;;;;;5114993;28;20284;-64
2021/03/09 01:11:28;;;;;;;89.57;40.65;;;;;;;;;;5113369;28;20234;-63
2021/03/09 01:13:55;;;;;;;98.43;40.13;;;;;;;;;;5114845;28;20284;-63
2021/03/09 01:16:21;;;;;;;89.03;39.72;;;;;;;;;;5114185;28;20555;-64
2021/03/09 01:18:48;;;;;;;86.10;38.10;;;;;;;;;;5114034;28;20200;-64
2021/03/09 01:21:16;;;;;;;104.53;42.13;;;;;;;;;;5114604;28;20299;-64
2021/03/09 01:23:43;;;;;;;93.75;40.78;;;;;;;;;;5113717;28;20232;-64
2021/03/09 01:26:09;;;;;;;99.40;43.10;;;;;;;;;;5113593;28;20289;-64
2021/03/09 01:28:36;;;;;;;99.72;39.63;;;;;;;;;;5113964;28;20231;-65
2021/03/09 01:31:03;;;;;;;106.93;41.53;;;;;;;;;;5114227;28;20283;-64
2021/03/09 01:33:29;;;;;;;99.57;41.88;;;;;;;;;;5113839;28;20192;-64
2021/03/09 01:35:56;;;;;;;91.57;39.30;;;;;;;;;;5114308;28;20238;-64
2021/03/09 01:38:24;;;;;;;96.60;41.53;;;;;;;;;;5113747;28;20595;-65
2021/03/09 01:40:51;;;;;;;98.32;42.15;;;;;;;;;;5113957;28;20226;-65
2021/03/09 01:43:17;;;;;;;87.28;41.10;;;;;;;;;;5114209;28;20189;-65
2021/03/09 01:45:44;;;;;;;108.13;43.53;;;;;;;;;;5113462;28;20287;-65
2021/03/09 01:48:11;;;;;;;97.45;40.22;;;;;;;;;;5113408;28;20228;-64
2021/03/09 01:50:40;;;;;;;98.30;41.20;;;;;;;;;;5113474;28;20293;-65
2021/03/09 01:53:08;;;;;;;89.90;41.10;;;;;;;;;;5113601;28;20289;-64
2021/03/09 01:55:36;;;;;;;99.30;46.53;;;;;;;;;;5114120;28;20541;-64
2021/03/09 01:58:06;;;;;;;95.18;40.55;;;;;;;;;;5113723;28;20201;-65
2021/03/09 02:00:33;;;;;;;106.15;43.10;;;;;;;;;;5113148;28;20193;-64
2021/03/09 02:03:00;;;;;;;94.63;41.97;;;;;;;;;;5113579;28;20212;-64
2021/03/09 02:05:27;;;;;;;110.78;47.00;;;;;;;;;;5113441;28;20629;-64
2021/03/09 02:07:53;;;;;;;104.18;45.13;;;;;;;;;;5113393;28;20284;-64
2021/03/09 02:10:21;;;;;;;96.32;42.40;;;;;;;;;;5113586;28;20280;-64
2021/03/09 02:12:52;;;;;;;103.15;44.50;;;;;;;;;;5114265;28;20264;-63
2021/03/09 02:15:24;;;;;;;112.80;44.92;;;;;;;;;;5114071;28;20238;-63
2021/03/09 02:17:54;;;;;;;102.93;43.33;;;;;;;;;;5114323;28;20200;-63
2021/03/09 02:20:36;;;;;;;90.05;41.72;;;;;;;;;;5113139;28;20607;-64
2021/03/09 02:23:21;;;;;;;102.78;45.80;;;;;;;;;;5113356;28;20218;-64
2021/03/09 02:26:04;;;;;;;89.47;43.78;;;;;;;;;;5117391;28;20231;-64
2021/03/09 02:28:37;;;;;;;99.80;43.55;;;;;;;;;;5117828;28;20258;-63
2021/03/09 02:31:06;;;;;;;112.32;44.67;;;;;;;;;;5117395;28;20181;-63
2021/03/09 02:33:34;;;;;;;103.60;45.08;;;;;;;;;;5117572;28;20220;-63
2021/03/09 02:36:03;;;;;;;93.95;45.13;;;;;;;;;;5117607;28;20235;-63
2021/03/09 02:38:32;;;;;;;99.00;45.08;;;;;;;;;;5117229;28;20716;-64
2021/03/09 02:41:01;;;;;;;107.50;45.80;;;;;;;;;;5117483;28;20298;-63
2021/03/09 02:43:28;;;;;;;117.28;46.40;;;;;;;;;;5116945;28;20279;-64
2021/03/09 02:45:55;;;;;;;97.38;40.40;;;;;;;;;;5117284;28;20231;-63
2021/03/09 02:48:23;;;;;;;98.53;42.30;;;;;;;;;;5118076;28;20280;-64
2021/03/09 02:50:52;;;;;;;88.90;42.22;;;;;;;;;;5116797;28;20193;-63
2021/03/09 02:53:19;;;;;;;104.50;45.25;;;;;;;;;;5116889;28;20292;-63
2021/03/09 02:55:47;;;;;;;99.68;45.65;;;;;;;;;;5116980;28;20331;-63
2021/03/09 02:58:14;;;;;;;96.25;43.90;;;;;;;;;;5117137;28;20682;-63
2021/03/09 03:00:42;;;;;;;99.15;46.13;;;;;;;;;;5116914;28;20280;-63
2021/03/09 03:03:09;;;;;;;94.90;42.25;;;;;;;;;;5116765;28;20272;-63
2021/03/09 03:05:37;;;;;;;107.13;47.63;;;;;;;;;;5117316;28;20201;-63
2021/03/09 03:08:04;;;;;;;99.85;45.45;;;;;;;;;;5116387;28;20199;-63
2021/03/09 03:10:31;;;;;;;81.85;39.33;;;;;;;;;;5116915;28;20616;-63
2021/03/09 03:12:58;;;;;;;98.95;44.55;;;;;;;;;;5116409;28;20333;-63
2021/03/09 03:15:25;;;;;;;94.53;45.08;;;;;;;;;;5116457;28;20198;-63
2021/03/09 03:17:52;;;;;;;89.78;42.35;;;;;;;;;;5116305;28;20225;-63
2021/03/09 03:20:20;;;;;;;98.32;45.53;;;;;;;;;;5116581;28;20285;-63
2021/03/09 03:22:48;;;;;;;95.80;46.75;;;;;;;;;;5116419;28;20228;-63
2021/03/09 03:25:15;;;;;;;94.20;43.85;;;;;;;;;;5116604;28;20283;-63
2021/03/09 03:27:43;;;;;;;80.40;39.70;;;;;;;;;;5116241;28;20280;-63
2021/03/09 03:30:12;;;;;;;93.13;42.55;;;;;;;;;;5116465;28;20712;-63
2021/03/09 03:32:39;;;;;;;90.70;42.20;;;;;;;;;;5116500;28;20228;-63
2021/03/09 03:35:07;;;;;;;90.10;45.20;;;;;;;;;;5115618;28;20367;-63
2021/03/09 03:37:35;;;;;;;88.93;42.78;;;;;;;;;;5115981;28;20334;-63
2021/03/09 03:40:03;;;;;;;88.20;42.05;;;;;;;;;;5116429;28;20629;-64
2021/03/09 03:42:30;;;;;;;78.78;39.88;;;;;;;;;;5116171;28;20304;-64
2021/03/09 03:44:56;;;;;;;74.20;37.42;;;;;;;;;;5115903;28;20280;-64
2021/03/09 03:47:23;;;;;;;85.35;37.95;;;;;;;;;;5116388;28;20281;-63
2021/03/09 03:49:50;;;;;;;84.00;39.25;;;;;;;;;;5115845;28;20280;-63
2021/03/09 03:52:20;;;;;;;72.40;37.17;;;;;;;;;;5115665;28;20196;-63
2021/03/09 03:54:51;;;;;;;80.00;38.80;;;;;;;;;;5115971;28;20227;-63
2021/03/09 03:57:22;;;;;;;78.07;37.78;;;;;;;;;;5116353;28;20220;-63
2021/03/09 03:59:53;;;;;;;84.38;39.22;;;;;;;;;;5115706;28;20177;-63
2021/03/09 04:02:20;;;;;;;83.20;38.72;;;;;;;;;;5115733;28;20300;-62
2021/03/09 04:04:49;;;;;;;80.90;37.45;;;;;;;;;;5115773;28;20718;-63
2021/03/09 04:07:19;;;;;;;75.60;40.42;;;;;;;;;;5115604;28;20197;-63
2021/03/09 04:09:46;;;;;;;74.80;38.83;;;;;;;;;;5115697;28;20706;-63
2021/03/09 04:12:13;;;;;;;74.85;36.65;;;;;;;;;;5115923;28;20316;-63
2021/03/09 04:14:41;;;;;;;79.75;36.50;;;;;;;;;;5115776;28;20229;-63
2021/03/09 04:17:08;;;;;;;84.57;38.97;;;;;;;;;;5115294;28;20279;-63
2021/03/09 04:19:35;;;;;;;59.47;32.25;;;;;;;;;;5115142;28;20314;-63
2021/03/09 04:22:02;;;;;;;69.50;35.45;;;;;;;;;;5115080;28;20308;-63
2021/03/09 04:24:29;;;;;;;73.85;35.95;;;;;;;;;;5115224;28;20197;-63
2021/03/09 04:26:57;;;;;;;78.43;38.70;;;;;;;;;;5115104;28;20233;-64
2021/03/09 04:29:23;;;;;;;70.22;35.10;;;;;;;;;;5114971;28;20281;-63
2021/03/09 04:31:51;;;;;;;64.63;33.35;;;;;;;;;;5115212;28;20619;-64
2021/03/09 04:34:18;;;;;;;68.40;37.95;;;;;;;;;;5115654;28;20284;-64
2021/03/09 04:36:45;;;;;;;79.82;38.58;;;;;;;;;;5115026;28;20275;-64
2021/03/09 04:39:12;;;;;;;81.90;41.28;;;;;;;;;;5114799;28;20287;-64
2021/03/09 04:41:39;;;;;;;70.70;36.42;;;;;;;;;;5115069;28;20259;-64
2021/03/09 04:44:06;;;;;;;86.30;40.80;;;;;;;;;;5114932;28;20280;-64
2021/03/09 04:46:33;;;;;;;87.63;43.58;;;;;;;;;;5114432;28;20207;-64
2021/03/09 04:49:01;;;;;;;84.53;41.30;;;;;;;;;;5115323;28;20284;-64
2021/03/09 04:51:28;;;;;;;87.20;45.10;;;;;;;;;;5114863;28;20250;-64
2021/03/09 04:53:55;;;;;;;91.38;41.95;;;;;;;;;;5114766;28;20287;-64
2021/03/09 04:56:22;;;;;;;88.20;45.08;;;;;;;;;;5114849;28;20296;-63
2021/03/09 04:58:49;;;;;;;83.78;43.55;;;;;;;;;;5114753;28;20283;-63
2021/03/09 05:01:15;;;;;;;88.63;41.50;;;;;;;;;;5114341;28;20324;-64
2021/03/09 05:03:42;;;;;;;87.65;43.28;;;;;;;;;;5125751;27;20274;-64
2021/03/09 05:06:10;;;;;;;89.10;45.63;;;;;;;;;;5133934;27;20694;-63
2021/03/09 05:08:36;;;;;;;87.28;44.67;;;;;;;;;;5133559;27;20248;-64
2021/03/09 05:11:03;;;;;;;83.72;45.20;;;;;;;;;;5133850;27;20246;-63
2021/03/09 05:13:30;;;;;;;90.82;46.83;;;;;;;;;;5134766;27;20192;-64
2021/03/09 05:15:57;;;;;;;88.18;46.80;;;;;;;;;;5134497;27;20203;-64
2021/03/09 05:18:23;;;;;;;102.60;50.70;;;;;;;;;;5135039;27;20725;-64
2021/03/09 05:20:50;;;;;;;88.22;46.28;;;;;;;;;;5134210;27;20239;-64
2021/03/09 05:23:18;;;;;;;91.93;45.95;;;;;;;;;;5134245;27;20262;-64
2021/03/09 05:25:44;;;;;;;100.45;48.28;;;;;;;;;;5134443;27;20299;-65
2021/03/09 05:28:11;;;;;;;94.60;45.00;;;;;;;;;;5134364;27;20232;-64
2021/03/09 05:30:38;;;;;;;92.10;46.05;;;;;;;;;;5134385;27;20283;-65
2021/03/09 05:33:05;;;;;;;96.30;49.55;;;;;;;;;;5134279;27;20362;-64
2021/03/09 05:35:31;;;;;;;92.00;47.33;;;;;;;;;;5132261;27;20231;-65
2021/03/09 05:37:58;;;;;;;85.72;43.83;;;;;;;;;;5134246;27;20194;-65
2021/03/09 05:40:26;;;;;;;94.03;48.08;;;;;;;;;;5134311;27;20279;-64
2021/03/09 05:42:54;;;;;;;97.43;51.72;;;;;;;;;;5134016;27;20223;-65
2021/03/09 05:45:21;;;;;;;104.78;51.17;;;;;;;;;;5134490;27;20224;-64
2021/03/09 05:47:48;;;;;;;98.00;49.47;;;;;;;;;;5134257;27;20200;-64
2021/03/09 05:50:15;;;;;;;94.30;50.25;;;;;;;;;;5133770;27;20654;-64
2021/03/09 05:52:42;;;;;;;100.40;49.47;;;;;;;;;;5134586;27;20604;-65
2021/03/09 05:55:10;;;;;;;96.07;48.63;;;;;;;;;;5133972;27;20602;-64
2021/03/09 05:57:38;;;;;;;109.30;53.45;;;;;;;;;;5134281;27;20336;-65
2021/03/09 06:00:05;;;;;;;121.88;55.03;;;;;;;;;;5133691;27;20207;-64
2021/03/09 06:02:32;;;;;;;119.38;56.80;;;;;;;;;;5134567;27;20573;-64
2021/03/09 06:04:59;;;;;;;110.15;51.92;;;;;;;;;;5132366;27;20231;-64
2021/03/09 06:07:26;;;;;;;121.70;60.15;;;;;;;;;;5132893;27;20648;-64
2021/03/09 06:09:52;;;;;;;129.07;62.22;;;;;;;;;;5132917;27;20200;-64
2021/03/09 06:12:20;;;;;;;121.50;61.85;;;;;;;;;;5133453;28;20263;-64
2021/03/09 06:15:00;;;;;;;134.52;63.05;;;;;;;;;;5133680;28;20200;-64
2021/03/09 06:17:28;;;;;;;128.23;58.70;;;;;;;;;;5133873;28;20196;-64
2021/03/09 06:19:55;;;;;;;128.40;60.60;;;;;;;;;;5134373;28;20227;-64
2021/03/09 06:22:22;;;;;;;118.95;58.05;;;;;;;;;;5133751;28;20303;-64
2021/03/09 06:24:49;;;;;;;107.60;57.75;;;;;;;;;;5133906;28;20211;-64
2021/03/09 06:27:26;;;;;;;116.45;56.92;;;;;;;;;;5133209;28;20282;-64
2021/03/09 06:29:54;;;;;;;119.75;57.40;;;;;;;;;;5133513;28;20196;-63
2021/03/09 06:32:21;;;;;;;122.22;60.25;;;;;;;;;;5133575;28;20286;-64
2021/03/09 06:34:50;;;;;;;111.53;57.88;;;;;;;;;;5132995;28;20288;-64
2021/03/09 06:37:18;;;;;;;116.05;55.97;;;;;;;;;;5132029;28;20283;-64
2021/03/09 06:39:52;;;;;;;127.57;57.97;;;;;;;;;;5133314;28;20284;-64
2021/03/09 06:42:20;;;;;;;133.75;56.53;;;;;;;;;;5133354;28;20309;-66
2021/03/09 06:44:51;;;;;;;110.15;55.55;;;;;;;;;;5133382;28;20192;-66
2021/03/09 06:47:19;;;;;;;112.75;56.10;;;;;;;;;;5133755;28;20279;-65
2021/03/09 06:49:49;;;;;;;122.95;58.50;;;;;;;;;;5133396;28;20283;-64
2021/03/09 06:52:16;;;;;;;113.38;58.13;;;;;;;;;;5133806;28;20208;-64
2021/03/09 06:54:43;;;;;;;110.13;51.40;;;;;;;;;;5133665;28;20208;-64
2021/03/09 06:57:10;;;;;;;128.63;58.22;;;;;;;;;;5134207;28;20612;-64
2021/03/09 06:59:37;;;;;;;110.53;55.22;;;;;;;;;;5133972;28;20591;-65
2021/03/09 07:02:05;;;;;;;100.00;52.33;;;;;;;;;;5133272;28;20227;-63
2021/03/09 07:04:33;;;;;;;109.97;57.30;;;;;;;;;;5133416;28;20317;-64
2021/03/09 07:07:00;;;;;;;114.13;58.10;;;;;;;;;;5133393;28;20282;-65
2021/03/09 07:09:27;;;;;;;109.88;58.53;;;;;;;;;;5134517;27;20199;-64
2021/03/09 07:11:55;;;;;;;108.32;55.47;;;;;;;;;;5137436;27;20314;-64
2021/03/09 07:14:23;;;;;;;107.25;53.28;;;;;;;;;;5137462;27;20188;-64
2021/03/09 07:16:50;;;;;;;114.95;56.20;;;;;;;;;;5136873;27;20192;-64
2021/03/09 07:19:23;;;;;;;112.10;56.92;;;;;;;;;;5136690;27;20192;-64
2021/03/09 07:21:51;;;;;;;90.47;45.80;;;;;;;;;;5137154;27;20257;-65
2021/03/09 07:24:20;;;;;;;103.47;54.22;;;;;;;;;;5137131;27;20287;-64
2021/03/09 07:26:47;;;;;;;107.20;54.05;;;;;;;;;;5136703;27;20284;-65
2021/03/09 07:29:15;;;;;;;99.35;53.70;;;;;;;;;;5136560;27;20296;-64
2021/03/09 07:31:42;;;;;;;110.65;60.17;;;;;;;;;;5137317;27;20712;-64
2021/03/09 07:34:09;;;;;;;98.28;56.25;;;;;;;;;;5136988;27;20228;-64
2021/03/09 07:36:36;;;;;;;109.05;54.58;;;;;;;;;;5136904;27;20607;-63
2021/03/09 07:39:04;;;;;;;96.65;51.85;;;;;;;;;;5136527;27;20239;-65
2021/03/09 07:41:31;;;;;;;90.05;46.10;;;;;;;;;;5136329;27;20196;-64
2021/03/09 07:43:59;;;;;;;96.90;56.30;;;;;;;;;;5136388;27;20196;-64
2021/03/09 07:46:26;;;;;;;93.07;47.25;;;;;;;;;;5136694;27;20188;-64
2021/03/09 07:48:54;;;;;;;108.47;60.60;;;;;;;;;;5136413;27;20556;-64
2021/03/09 07:51:22;;;;;;;115.95;59.88;;;;;;;;;;5136585;27;20630;-64
2021/03/09 07:54:07;;;;;;;111.85;57.35;;;;;;;;;;5136306;27;20287;-64
2021/03/09 07:56:34;;;;;;;114.22;54.70;;;;;;;;;;5136908;27;20384;-64
2021/03/09 07:59:08;;;;;;;97.82;50.88;;;;;;;;;;5136474;27;20203;-64
2021/03/09 08:01:45;;;;;;;78.57;47.13;;;;;;;;;;5136216;27;20572;-65
2021/03/09 08:04:12;;;;;;;89.95;52.08;;;;;;;;;;5136479;27;20202;-64
2021/03/09 08:06:42;;;;;;;97.28;52.10;;;;;;;;;;5136431;27;20211;-64
2021/03/09 08:09:29;;;;;;;105.93;56.20;;;;;;;;;;5136622;27;20189;-63
2021/03/09 08:11:57;;;;;;;105.57;54.47;;;;;;;;;;5136171;27;20307;-64
2021/03/09 08:14:24;;;;;;;111.75;53.05;;;;;;;;;;5136087;27;20283;-64
2021/03/09 08:16:51;;;;;;;103.18;55.35;;;;;;;;;;5135932;27;20204;-64
2021/03/09 08:19:32;;;;;;;93.13;51.00;;;;;;;;;;5136548;27;20231;-64
2021/03/09 08:21:59;;;;;;;92.05;50.28;;;;;;;;;;5132838;27;20251;-63
2021/03/09 08:24:56;;;;;;;105.03;55.08;;;;;;;;;;5135761;27;20668;-63
2021/03/09 08:27:47;;;;;;;94.25;50.65;;;;;;;;;;5052596;28;20219;-64
2021/03/09 08:30:37;;;;;;;96.07;52.28;;;;;;;;;;5116167;27;20230;-63
2021/03/09 08:33:31;;;;;;;90.68;51.05;;;;;;;;;;5135702;27;20224;-64
2021/03/09 08:35:59;;;;;;;101.72;52.30;;;;;;;;;;5136329;27;20188;-64
2021/03/09 08:38:25;;;;;;;97.80;54.15;;;;;;;;;;5136394;27;20220;-64
2021/03/09 08:41:00;;;;;;;86.40;46.72;;;;;;;;;;5136323;27;20323;-63
2021/03/09 08:43:26;;;;;;;95.60;52.55;;;;;;;;;;5135475;27;20238;-63
2021/03/09 08:45:57;;;;;;;93.68;50.35;;;;;;;;;;5135586;27;20223;-63
2021/03/09 08:48:38;;;;;;;104.30;52.03;;;;;;;;;;5136183;27;20200;-64
2021/03/09 08:51:06;;;;;;;99.05;52.33;;;;;;;;;;5135045;27;20199;-64
2021/03/09 08:53:33;;;;;;;108.05;50.92;;;;;;;;;;5135639;27;20325;-64
2021/03/09 08:56:00;;;;;;;86.88;49.63;;;;;;;;;;5135343;27;20275;-63
2021/03/09 08:58:27;;;;;;;92.97;47.80;;;;;;;;;;5135643;27;20279;-64
2021/03/09 09:00:54;;;;;;;97.72;48.17;;;;;;;;;;5135280;27;20235;-64
2021/03/09 09:03:31;;;;;;;92.38;47.92;;;;;;;;;;5135698;27;20330;-63
2021/03/09 09:05:57;;;;;;;88.82;50.05;;;;;;;;;;5135759;27;20569;-63
2021/03/09 09:08:25;;;;;;;96.00;46.40;;;;;;;;;;5135356;27;20227;-63
2021/03/09 09:10:52;;;;;;;99.32;50.47;;;;;;;;;;5134755;27;20659;-62
2021/03/09 09:13:27;;;;;;;94.88;50.63;;;;;;;;;;5135046;27;20180;-64
2021/03/09 09:15:54;;;;;;;84.65;42.90;;;;;;;;;;5135453;27;20192;-65
2021/03/09 09:18:21;;;;;;;99.78;48.65;;;;;;;;;;5135731;27;20618;-64
2021/03/09 09:20:49;;;;;;;82.03;45.42;;;;;;;;;;5135644;27;20223;-63
2021/03/09 09:23:18;;;;;;;86.13;44.72;;;;;;;;;;5135087;27;20314;-64
2021/03/09 09:25:47;;;;;;;89.20;48.00;;;;;;;;;;5135293;27;20204;-63
2021/03/09 09:28:22;;;;;;;88.13;44.75;;;;;;;;;;5135309;27;20250;-63
2021/03/09 09:30:48;;;;;;;96.00;49.30;;;;;;;;;;5134866;27;20184;-63
2021/03/09 09:33:15;;;;;;;95.18;51.60;;;;;;;;;;5134256;27;20607;-64
2021/03/09 09:35:43;;;;;;;86.03;45.30;;;;;;;;;;5134966;27;20211;-64
2021/03/09 09:38:10;;;;;;;92.10;48.47;;;;;;;;;;5134867;27;20192;-64
2021/03/09 09:40:38;;;;;;;91.13;47.53;;;;;;;;;;5134502;27;20199;-64
2021/03/09 09:43:07;;;;;;;92.10;46.30;;;;;;;;;;5135105;27;20251;-64
2021/03/09 09:45:39;;;;;;;90.25;45.25;;;;;;;;;;5134817;27;20196;-65
2021/03/09 09:48:07;;;;;;;80.90;44.05;;;;;;;;;;5134389;27;20331;-64
2021/03/09 09:50:35;;;;;;;82.68;43.53;;;;;;;;;;5134469;27;20239;-63
2021/03/09 09:53:02;;;;;;;92.60;44.95;;;;;;;;;;5134767;27;20203;-64
2021/03/09 09:55:30;;;;;;;90.95;45.20;;;;;;;;;;5134424;27;20286;-65
2021/03/09 09:57:57;;;;;;;77.85;44.08;;;;;;;;;;5134698;27;20275;-64
2021/03/09 10:00:26;;;;;;;83.65;43.60;;;;;;;;;;5134389;27;20680;-64
2021/03/09 10:03:06;;;;;;;75.65;41.63;;;;;;;;;;5134249;27;20218;-64
2021/03/09 10:05:33;;;;;;;63.90;35.15;;;;;;;;;;5134646;27;20275;-64
2021/03/09 10:07:59;;;;;;;71.82;39.55;;;;;;;;;;5134627;27;20344;-63
2021/03/09 10:10:26;;;;;;;83.88;40.17;;;;;;;;;;5134578;27;20235;-63
2021/03/09 10:12:53;;;;;;;74.95;40.25;;;;;;;;;;5134504;27;20599;-63
2021/03/09 10:15:20;;;;;;;74.10;41.97;;;;;;;;;;5134474;28;20287;-63
2021/03/09 10:17:48;;;;;;;69.07;37.70;;;;;;;;;;5134365;28;20569;-63
2021/03/09 10:20:19;;;;;;;76.35;38.83;;;;;;;;;;5133993;28;20288;-64
2021/03/09 10:22:46;;;;;;;68.72;37.00;;;;;;;;;;5134329;28;20253;-64
2021/03/09 10:25:14;;;;;;;70.88;40.13;;;;;;;;;;5134860;28;20223;-64
2021/03/09 10:27:41;;;;;;;65.10;38.40;;;;;;;;;;5134360;28;20284;-64
2021/03/09 10:30:08;;;;;;;58.60;33.58;;;;;;;;;;5133958;28;20653;-64
2021/03/09 10:32:49;;;;;;;67.10;36.25;;;;;;;;;;5134225;28;20203;-64
2021/03/09 10:35:16;;;;;;;63.63;33.95;;;;;;;;;;5134274;28;20184;-64
2021/03/09 10:37:43;;;;;;;66.70;36.53;;;;;;;;;;5133996;28;20295;-64
2021/03/09 10:40:11;;;;;;;62.88;33.78;;;;;;;;;;5134685;28;20630;-64
2021/03/09 10:42:39;;;;;;;76.97;42.20;;;;;;;;;;5133809;28;20307;-63
2021/03/09 10:45:22;;;;;;;77.22;39.63;;;;;;;;;;5137808;27;20665;-64
2021/03/09 10:47:51;;;;;;;63.13;37.92;;;;;;;;;;5138202;27;20218;-65
2021/03/09 10:50:19;;;;;;;64.60;37.75;;;;;;;;;;5137750;27;20646;-63
2021/03/09 10:52:46;;;;;;;59.00;33.53;;;;;;;;;;5137723;27;20228;-64
2021/03/09 10:55:13;;;;;;;65.47;36.72;;;;;;;;;;5138103;27;20200;-64
2021/03/09 10:57:40;;;;;;;67.07;36.53;;;;;;;;;;5137759;27;20192;-64
2021/03/09 11:00:08;;;;;;;54.72;32.25;;;;;;;;;;5138038;27;20188;-64
2021/03/09 11:02:35;;;;;;;64.00;34.22;;;;;;;;;;5137832;27;20251;-64
2021/03/09 11:05:02;;;;;;;57.20;35.22;;;;;;;;;;5137771;27;20249;-64
2021/03/09 11:07:29;;;;;;;59.42;35.70;;;;;;;;;;5137904;27;20199;-64
2021/03/09 11:09:56;;;;;;;56.00;32.40;;;;;;;;;;5137856;27;20245;-64
2021/03/09 11:12:23;;;;;;;52.95;32.72;;;;;;;;;;5137479;27;20266;-64
2021/03/09 11:14:49;;;;;;;60.75;35.15;;;;;;;;;;5137611;27;20242;-63
2021/03/09 11:17:16;;;;;;;56.30;34.78;;;;;;;;;;5137582;27;20200;-64
2021/03/09 11:19:43;;;;;;;58.63;35.20;;;;;;;;;;5138031;27;20224;-64
2021/03/09 11:22:11;;;;;;;49.03;30.02;;;;;;;;;;5137009;27;20216;-63
2021/03/09 11:24:37;;;;;;;50.92;31.48;;;;;;;;;;5137103;27;20286;-63
2021/03/09 11:27:04;;;;;;;45.10;29.77;;;;;;;;;;5137285;27;20356;-64
2021/03/09 11:29:31;;;;;;;51.25;28.55;;;;;;;;;;5137115;27;20235;-63
2021/03/09 11:31:58;;;;;;;55.97;32.63;;;;;;;;;;5137467;27;20188;-66
2021/03/09 11:34:25;;;;;;;43.42;28.85;;;;;;;;;;5137262;27;20197;-64
2021/03/09 11:36:52;;;;;;;48.92;29.15;;;;;;;;;;5137221;27;20280;-64
2021/03/09 11:39:20;;;;;;;52.95;31.50;;;;;;;;;;5136886;27;20692;-64
2021/03/09 11:41:46;;;;;;;47.50;31.33;;;;;;;;;;5137939;27;20233;-64
2021/03/09 11:44:13;;;;;;;49.40;29.50;;;;;;;;;;5136984;27;20252;-64
2021/03/09 11:46:40;;;;;;;39.33;26.45;;;;;;;;;;5137540;27;20276;-65
2021/03/09 11:49:07;;;;;;;42.42;28.13;;;;;;;;;;5136589;27;20279;-64
2021/03/09 11:51:33;;;;;;;45.45;27.67;;;;;;;;;;5137107;27;20283;-64
2021/03/09 11:54:00;;;;;;;46.80;28.88;;;;;;;;;;5137345;27;20261;-64
2021/03/09 11:56:28;;;;;;;43.60;29.13;;;;;;;;;;5136032;27;20279;-64
2021/03/09 11:58:55;;;;;;;42.53;28.17;;;;;;;;;;5136498;27;20662;-64
2021/03/09 12:01:21;;;;;;;44.80;28.42;;;;;;;;;;5137247;27;20551;-64
2021/03/09 12:03:48;;;;;;;51.88;31.70;;;;;;;;;;5136338;27;20699;-64
2021/03/09 12:06:15;;;;;;;46.67;29.30;;;;;;;;;;5136597;27;20230;-64
2021/03/09 12:08:42;;;;;;;42.63;28.52;;;;;;;;;;5136570;27;20247;-64
2021/03/09 12:11:09;;;;;;;47.88;29.60;;;;;;;;;;5136218;27;20728;-64
2021/03/09 12:13:36;;;;;;;47.47;30.52;;;;;;;;;;5136248;27;20180;-65
2021/03/09 12:16:04;;;;;;;50.47;30.48;;;;;;;;;;5136619;27;20278;-64
2021/03/09 12:18:31;;;;;;;48.92;29.92;;;;;;;;;;5137144;27;20562;-64
2021/03/09 12:20:58;;;;;;;51.20;32.42;;;;;;;;;;5136664;27;20325;-64
2021/03/09 12:23:25;;;;;;;54.25;31.30;;;;;;;;;;5136197;27;20298;-63
2021/03/09 12:25:52;;;;;;;57.05;32.67;;;;;;;;;;5135936;27;20200;-64
2021/03/09 12:28:19;;;;;;;53.53;32.65;;;;;;;;;;5135902;27;20262;-64
2021/03/09 12:30:48;;;;;;;57.25;31.92;;;;;;;;;;5136103;27;20200;-64
2021/03/09 12:33:15;;;;;;;58.78;31.65;;;;;;;;;;5136079;27;20200;-64
2021/03/09 12:35:42;;;;;;;59.22;32.10;;;;;;;;;;5135866;27;20200;-64
2021/03/09 12:38:09;;;;;;;69.70;36.17;;;;;;;;;;5136494;27;20188;-64
2021/03/09 12:40:36;;;;;;;57.00;32.17;;;;;;;;;;5136735;27;20276;-64
2021/03/09 12:43:02;;;;;;;65.95;35.50;;;;;;;;;;5135515;27;20293;-64
2021/03/09 12:45:29;;;;;;;56.90;32.72;;;;;;;;;;5135521;27;20240;-64
2021/03/09 12:47:57;;;;;;;64.82;33.08;;;;;;;;;;5135926;27;20396;-64
2021/03/09 12:50:24;;;;;;;64.47;33.83;;;;;;;;;;5135610;27;20240;-64
2021/03/09 12:52:50;;;;;;;53.50;30.77;;;;;;;;;;5135689;27;20236;-64
2021/03/09 12:55:17;;;;;;;57.60;32.20;;;;;;;;;;5135955;27;20233;-64
2021/03/09 12:57:44;;;;;;;60.33;29.90;;;;;;;;;;5135788;27;20228;-64
2021/03/09 13:00:11;;;;;;;51.10;31.58;;;;;;;;;;5136019;27;20205;-64
2021/03/09 13:02:38;;;;;;;47.58;29.92;;;;;;;;;;5135357;27;20290;-64
2021/03/09 13:05:07;;;;;;;63.40;33.10;;;;;;;;;;5135282;27;20232;-64
2021/03/09 13:07:34;;;;;;;56.00;32.33;;;;;;;;;;5134976;27;20204;-64
2021/03/09 13:10:01;;;;;;;58.85;32.50;;;;;;;;;;5135427;27;20580;-64
2021/03/09 13:12:27;;;;;;;52.95;31.50;;;;;;;;;;5135874;27;20227;-64
2021/03/09 13:14:54;;;;;;;51.28;30.60;;;;;;;;;;5135558;27;20626;-64
2021/03/09 13:17:21;;;;;;;66.45;33.85;;;;;;;;;;5135540;27;20246;-64
2021/03/09 13:19:47;;;;;;;54.78;30.55;;;;;;;;;;5135795;27;20224;-64
2021/03/09 13:22:15;;;;;;;57.55;31.98;;;;;;;;;;5135407;27;20650;-64
2021/03/09 13:24:44;;;;;;;55.08;32.28;;;;;;;;;;5134705;27;20196;-64
2021/03/09 13:27:10;;;;;;;55.85;30.77;;;;;;;;;;5135054;27;20246;-63
2021/03/09 13:29:37;;;;;;;48.28;28.67;;;;;;;;;;5134973;27;20620;-64
2021/03/09 13:32:04;;;;;;;56.20;32.72;;;;;;;;;;5134958;27;20580;-64
2021/03/09 13:34:31;;;;;;;52.97;33.67;;;;;;;;;;5134578;27;20680;-64
2021/03/09 13:36:58;;;;;;;62.47;31.30;;;;;;;;;;5134814;27;20643;-63
2021/03/09 13:39:26;;;;;;;59.70;32.50;;;;;;;;;;5134415;27;20662;-63
2021/03/09 13:41:52;;;;;;;57.65;31.75;;;;;;;;;;5135131;27;20321;-63
2021/03/09 13:44:19;;;;;;;48.97;28.38;;;;;;;;;;5134754;27;20256;-64
2021/03/09 13:46:46;;;;;;;56.03;30.27;;;;;;;;;;5134843;27;20358;-65
2021/03/09 13:49:13;;;;;;;58.45;32.20;;;;;;;;;;5134289;27;20658;-66
2021/03/09 13:51:40;;;;;;;53.70;29.80;;;;;;;;;;5134348;27;20231;-66
2021/03/09 13:54:07;;;;;;;52.95;30.65;;;;;;;;;;5134391;27;20204;-65
2021/03/09 13:56:34;;;;;;;47.22;28.10;;;;;;;;;;5134617;27;20283;-65
2021/03/09 13:59:01;;;;;;;56.05;32.13;;;;;;;;;;5134216;27;20224;-66
2021/03/09 14:01:28;;;;;;;47.88;28.35;;;;;;;;;;5134884;27;20562;-65
2021/03/09 14:03:54;;;;;;;49.65;29.73;;;;;;;;;;5134849;27;20208;-65
2021/03/09 14:06:21;;;;;;;47.78;27.13;;;;;;;;;;5134483;27;20196;-65
2021/03/09 14:08:48;;;;;;;46.42;28.92;;;;;;;;;;5134106;27;20200;-65
2021/03/09 14:11:15;;;;;;;48.03;27.73;;;;;;;;;;5134831;27;20252;-65
2021/03/09 14:13:43;;;;;;;46.28;28.42;;;;;;;;;;5134585;28;20251;-65
2021/03/09 14:16:10;;;;;;;46.38;28.45;;;;;;;;;;5134138;28;20192;-66
2021/03/09 14:18:36;;;;;;;44.95;29.33;;;;;;;;;;5134633;27;20192;-64